Time;durP1;ratioP1;P1;durP2;ratioP2;P2;SDS_P1;SDS_P2;PMS_P1;PMS_P2;Temp;Humidity;BMP_temperature;BMP_pressure;BME280_temperature;BME280_humidity;BME280_pressure;Samples;Min_cycle;Max_cycle;Signal;HPM_P1;HPM_P2
2021/07/27 00:00:38;;;;;;;15.07;6.15;;;23.30;98.30;;;;;;5011829;28;20049;-69
2021/07/27 00:03:43;;;;;;;18.05;6.18;;;23.30;98.20;;;;;;5012317;28;20045;-69
2021/07/27 00:06:47;;;;;;;15.10;6.18;;;23.20;98.20;;;;;;5029017;28;20415;-69
2021/07/27 00:09:51;;;;;;;16.35;6.47;;;23.20;97.90;;;;;;5052145;28;20060;-69
2021/07/27 00:12:56;;;;;;;18.70;6.28;;;23.20;98.00;;;;;;5052114;28;20514;-69
2021/07/27 00:16:00;;;;;;;18.63;6.20;;;23.20;98.10;;;;;;5051914;28;20412;-69
2021/07/27 00:19:04;;;;;;;18.73;6.13;;;23.20;98.20;;;;;;5052226;28;20219;-70
2021/07/27 00:22:09;;;;;;;13.23;5.88;;;23.20;98.00;;;;;;5051391;28;20040;-69
2021/07/27 00:25:17;;;;;;;15.50;5.55;;;23.20;97.90;;;;;;5051742;28;20040;-69
2021/07/27 00:28:21;;;;;;;10.85;5.45;;;23.10;98.20;;;;;;5051416;28;20036;-69
2021/07/27 00:31:27;;;;;;;13.52;5.40;;;23.10;98.20;;;;;;5051085;28;20039;-69
2021/07/27 00:34:32;;;;;;;14.30;6.05;;;23.10;97.70;;;;;;5051495;28;20043;-69
2021/07/27 00:37:42;;;;;;;10.95;5.60;;;23.00;97.80;;;;;;5051636;28;20530;-69
2021/07/27 00:40:47;;;;;;;18.08;5.75;;;23.10;97.90;;;;;;5051195;28;20483;-69
2021/07/27 00:43:51;;;;;;;15.00;6.32;;;23.10;98.00;;;;;;5050224;28;20048;-69
2021/07/27 00:46:55;;;;;;;17.83;5.70;;;23.10;98.30;;;;;;5051465;28;20387;-69
2021/07/27 00:49:59;;;;;;;14.45;6.47;;;23.10;98.40;;;;;;5042170;28;20036;-70
2021/07/27 00:53:05;;;;;;;13.32;6.45;;;23.00;98.60;;;;;;5017349;28;20045;-69
2021/07/27 00:56:09;;;;;;;15.30;6.32;;;22.90;98.90;;;;;;5018347;28;20045;-69
2021/07/27 00:59:13;;;;;;;23.00;6.85;;;22.70;99.50;;;;;;5010784;28;20041;-69
2021/07/27 01:02:18;;;;;;;21.38;6.75;;;22.70;99.70;;;;;;5038195;28;20076;-69
2021/07/27 01:05:28;;;;;;;14.90;6.53;;;22.60;99.90;;;;;;5051454;28;20040;-69
2021/07/27 01:08:35;;;;;;;15.45;6.68;;;22.60;99.90;;;;;;5051039;28;20047;-69
2021/07/27 01:11:41;;;;;;;16.27;6.82;;;22.50;99.90;;;;;;5010790;28;20505;-69
2021/07/27 01:14:45;;;;;;;18.48;6.97;;;22.40;99.90;;;;;;5010995;28;20037;-69
2021/07/27 01:17:51;;;;;;;17.40;6.88;;;22.40;99.90;;;;;;5010876;28;20065;-69
2021/07/27 01:37:56;;;;;;;14.02;7.13;;;22.60;99.90;;;;;;5035172;28;20060;-69
2021/07/27 01:44:25;;;;;;;14.02;6.28;;;22.60;99.90;;;;;;5037387;28;20047;-69
2021/07/27 01:47:30;;;;;;;12.70;6.35;;;22.70;99.90;;;;;;5030473;28;20048;-69
2021/07/27 01:50:34;;;;;;;15.80;6.60;;;22.80;99.90;;;;;;5029634;28;20044;-69
2021/07/27 01:53:44;;;;;;;10.88;5.82;;;22.90;99.40;;;;;;5029696;28;20033;-69
2021/07/27 01:56:49;;;;;;;12.95;5.38;;;23.10;99.40;;;;;;5030463;28;20052;-68
2021/07/27 02:00:00;;;;;;;11.95;5.97;;;23.20;99.10;;;;;;5030156;28;20053;-70
2021/07/27 02:03:04;;;;;;;16.90;5.90;;;23.20;98.90;;;;;;5045293;28;20040;-70
2021/07/27 02:06:08;;;;;;;19.92;6.28;;;23.30;98.60;;;;;;5049489;28;20051;-70
2021/07/27 02:09:15;;;;;;;14.23;6.28;;;23.30;98.50;;;;;;5050272;28;20059;-70
2021/07/27 02:12:23;;;;;;;11.57;6.20;;;23.40;98.10;;;;;;5045293;28;20051;-70
2021/07/27 02:15:38;;;;;;;10.82;6.10;;;23.40;97.90;;;;;;5030344;28;20044;-69
2021/07/27 02:18:42;;;;;;;15.25;5.82;;;23.40;98.20;;;;;;5027472;28;20052;-70
2021/07/27 02:21:47;;;;;;;10.75;5.78;;;23.40;98.50;;;;;;5033190;28;20052;-70
2021/07/27 02:24:51;;;;;;;13.48;6.45;;;23.20;98.80;;;;;;5035726;28;20044;-70
2021/07/27 02:27:59;;;;;;;13.13;7.28;;;22.90;99.40;;;;;;5049659;28;20052;-70
2021/07/27 02:31:06;;;;;;;16.10;7.40;;;22.30;99.90;;;;;;5035005;28;20044;-70
2021/07/27 02:34:10;;;;;;;12.57;7.25;;;22.00;99.90;;;;;;5024213;28;20048;-69
2021/07/27 02:37:15;;;;;;;18.25;8.07;;;22.00;99.90;;;;;;5048676;28;20502;-70
2021/07/27 02:40:22;;;;;;;16.58;7.13;;;22.10;99.90;;;;;;5032000;28;20920;-70
2021/07/27 02:43:30;;;;;;;10.98;7.07;;;22.00;99.90;;;;;;5029494;28;20052;-69
2021/07/27 02:46:34;;;;;;;20.70;8.48;;;22.00;99.90;;;;;;5029493;28;20073;-69
2021/07/27 02:49:38;;;;;;;15.30;7.00;;;22.10;99.90;;;;;;5009676;28;20543;-70
2021/07/27 02:52:43;;;;;;;10.48;6.53;;;22.10;99.90;;;;;;4997780;28;20048;-69
2021/07/27 02:55:47;;;;;;;17.55;6.40;;;22.50;99.90;;;;;;5009663;28;20049;-70
2021/07/27 02:58:51;;;;;;;9.40;5.68;;;22.80;99.90;;;;;;5008789;28;20057;-70
2021/07/27 03:01:56;;;;;;;16.70;6.47;;;22.90;99.90;;;;;;5009269;28;20393;-68
2021/07/27 03:05:00;;;;;;;13.52;5.95;;;23.10;99.90;;;;;;5027260;28;20040;-69
2021/07/27 03:08:10;;;;;;;12.98;6.10;;;23.30;99.90;;;;;;5053442;28;20055;-68
2021/07/27 03:11:15;;;;;;;12.23;5.78;;;23.30;99.90;;;;;;5042866;28;20044;-69
2021/07/27 03:14:19;;;;;;;12.30;5.82;;;23.60;98.30;;;;;;5038341;28;20055;-69
2021/07/27 03:17:25;;;;;;;13.90;5.70;;;23.60;98.90;;;;;;5044665;28;20047;-70
2021/07/27 03:20:32;;;;;;;15.60;5.45;;;23.50;99.70;;;;;;5012982;28;20045;-69
2021/07/27 03:23:36;;;;;;;13.20;6.18;;;23.70;98.10;;;;;;5041057;28;20052;-70
2021/07/27 03:26:40;;;;;;;18.95;6.45;;;23.70;98.20;;;;;;5052565;28;20064;-69
2021/07/27 03:29:44;;;;;;;17.65;7.20;;;23.50;98.60;;;;;;5052558;28;20048;-69
2021/07/27 03:32:50;;;;;;;12.55;6.65;;;23.30;99.50;;;;;;5013343;28;20049;-69
2021/07/27 03:35:55;;;;;;;11.63;5.78;;;23.00;99.90;;;;;;5012532;28;20044;-70
2021/07/27 03:39:00;;;;;;;10.30;7.43;;;23.00;99.90;;;;;;5013071;28;20037;-69
2021/07/27 03:42:05;;;;;;;10.93;7.65;;;22.30;99.90;;;;;;5012416;28;20049;-69
2021/07/27 03:45:09;;;;;;;14.38;8.48;;;21.70;99.90;;;;;;5012566;28;20052;-69
2021/07/27 03:48:16;;;;;;;17.15;8.35;;;21.50;99.90;;;;;;5025316;28;20048;-69
2021/07/27 03:51:20;;;;;;;14.23;8.52;;;21.50;99.90;;;;;;5051737;28;20542;-70
2021/07/27 03:54:30;;;;;;;12.07;8.32;;;21.50;99.90;;;;;;5052221;28;20048;-69
2021/07/27 03:57:34;;;;;;;11.82;7.65;;;21.50;99.90;;;;;;5052185;28;20044;-69
2021/07/27 04:00:38;;;;;;;13.35;8.05;;;21.50;99.90;;;;;;5051581;28;20104;-69
2021/07/27 04:03:44;;;;;;;14.65;9.18;;;21.40;99.90;;;;;;5052137;28;20048;-69
2021/07/27 04:06:48;;;;;;;16.00;7.28;;;21.40;99.90;;;;;;5051778;28;20044;-69
2021/07/27 04:09:52;;;;;;;14.30;8.48;;;21.30;99.90;;;;;;5052200;28;20052;-69
2021/07/27 04:12:58;;;;;;;15.75;9.20;;;21.30;99.90;;;;;;5051939;28;20063;-69
2021/07/27 04:16:03;;;;;;;16.13;8.32;;;21.00;99.90;;;;;;5051554;28;20036;-68
2021/07/27 04:19:08;;;;;;;16.25;9.20;;;20.90;99.90;;;;;;5051845;28;20040;-68
2021/07/27 04:22:12;;;;;;;13.10;9.02;;;20.80;99.90;;;;;;5046073;28;20044;-69
2021/07/27 04:25:16;;;;;;;13.73;8.55;;;20.70;99.90;;;;;;5031936;28;20040;-69
2021/07/27 04:28:20;;;;;;;15.45;7.97;;;20.60;99.90;;;;;;5031627;28;20063;-69
2021/07/27 04:31:24;;;;;;;17.70;9.43;;;20.60;99.90;;;;;;5023641;28;20045;-69
2021/07/27 04:34:28;;;;;;;14.82;8.93;;;20.70;99.90;;;;;;5011750;28;20400;-69
2021/07/27 04:37:32;;;;;;;13.10;8.27;;;20.90;99.90;;;;;;5011175;28;20052;-69
2021/07/27 04:40:35;;;;;;;13.25;8.07;;;20.90;99.90;;;;;;5012446;28;20397;-69
2021/07/27 04:43:40;;;;;;;13.32;7.93;;;21.00;99.90;;;;;;5030556;28;20061;-70
2021/07/27 04:46:45;;;;;;;16.17;8.13;;;21.00;99.90;;;;;;5029980;28;20044;-69
2021/07/27 04:49:49;;;;;;;14.73;6.97;;;21.10;99.90;;;;;;5013406;28;20395;-70
2021/07/27 04:53:01;;;;;;;14.77;6.57;;;21.30;99.90;;;;;;5012142;28;20048;-69
2021/07/27 04:56:05;;;;;;;14.80;5.57;;;21.70;99.90;;;;;;5015868;28;20037;-70
2021/07/27 04:59:09;;;;;;;13.52;5.60;;;22.90;99.90;;;;;;5031186;28;20044;-69
2021/07/27 05:02:14;;;;;;;14.23;6.72;;;23.10;99.90;;;;;;5027463;28;20056;-68
2021/07/27 05:05:18;;;;;;;15.93;6.45;;;22.50;99.90;;;;;;5024489;28;20060;-69
2021/07/27 05:08:23;;;;;;;12.73;7.85;;;22.20;99.90;;;;;;5030228;28;20395;-68
2021/07/27 05:11:27;;;;;;;13.23;7.15;;;22.00;99.90;;;;;;5019949;28;20052;-68
2021/07/27 05:14:31;;;;;;;10.30;6.75;;;22.50;99.90;;;;;;5030732;28;20045;-68
2021/07/27 05:17:37;;;;;;;11.15;7.40;;;22.70;99.90;;;;;;5028402;28;20045;-68
2021/07/27 05:20:44;;;;;;;8.50;6.13;;;23.20;99.90;;;;;;5030491;28;20042;-70
2021/07/27 05:23:48;;;;;;;13.52;6.65;;;24.30;99.90;;;;;;5049279;28;20290;-69
2021/07/27 05:26:53;;;;;;;13.18;6.60;;;24.70;99.90;;;;;;5041382;28;20049;-69
2021/07/27 05:29:56;;;;;;;15.05;6.80;;;26.20;99.90;;;;;;5026376;28;20064;-70
2021/07/27 05:33:02;;;;;;;10.70;6.05;;;26.90;99.90;;;;;;5030327;28;20064;-69
2021/07/27 05:36:07;;;;;;;11.75;6.50;;;27.40;99.20;;;;;;5031126;28;20059;-69
2021/07/27 05:39:11;;;;;;;10.77;6.20;;;26.70;98.70;;;;;;5026573;28;20052;-69
2021/07/27 05:42:16;;;;;;;9.85;5.43;;;27.00;98.80;;;;;;5028150;28;20040;-69
2021/07/27 05:45:20;;;;;;;10.15;5.40;;;27.50;98.40;;;;;;5031482;28;20579;-69
2021/07/27 05:48:25;;;;;;;12.38;5.72;;;28.30;97.40;;;;;;5024350;28;20044;-69
2021/07/27 05:51:28;;;;;;;8.82;5.50;;;29.00;96.40;;;;;;5027848;28;20689;-70
2021/07/27 05:54:32;;;;;;;8.60;6.05;;;29.50;94.90;;;;;;5012105;28;20056;-69
2021/07/27 05:57:36;;;;;;;7.75;5.43;;;28.50;94.80;;;;;;5023549;28;20056;-70
2021/07/27 06:00:41;;;;;;;11.13;5.95;;;27.50;96.20;;;;;;5024741;28;20049;-70
2021/07/27 06:03:45;;;;;;;11.43;6.15;;;26.30;98.00;;;;;;5030074;28;20048;-69
2021/07/27 06:06:49;;;;;;;11.20;5.38;;;26.30;98.40;;;;;;5026124;28;20231;-70
2021/07/27 06:09:53;;;;;;;13.75;6.25;;;26.20;98.60;;;;;;5023270;28;20507;-70
2021/07/27 06:12:57;;;;;;;12.18;6.00;;;26.00;98.70;;;;;;5010839;28;20048;-69
2021/07/27 06:16:05;;;;;;;13.88;6.80;;;25.00;99.90;;;;;;5017335;28;20408;-69
2021/07/27 06:19:10;;;;;;;14.75;6.47;;;24.10;99.90;;;;;;5018151;28;20036;-70
2021/07/27 06:22:17;;;;;;;10.70;5.82;;;23.90;99.90;;;;;;5021995;28;20570;-70
2021/07/27 06:25:21;;;;;;;12.00;6.47;;;23.80;99.90;;;;;;5024139;28;20048;-69
2021/07/27 06:28:25;;;;;;;14.00;7.10;;;23.10;99.90;;;;;;5030361;28;20048;-69
2021/07/27 06:31:29;;;;;;;16.33;7.13;;;22.80;99.90;;;;;;5026293;28;20049;-70
2021/07/27 06:34:34;;;;;;;12.02;7.50;;;23.10;99.90;;;;;;5030664;28;20392;-69
2021/07/27 06:37:38;;;;;;;10.65;5.93;;;23.60;99.90;;;;;;5024751;28;20044;-68
2021/07/27 06:40:42;;;;;;;11.25;6.43;;;24.70;99.90;;;;;;5011972;28;20049;-69
2021/07/27 06:43:46;;;;;;;11.90;5.47;;;25.10;99.90;;;;;;5029518;28;20048;-69
2021/07/27 06:46:51;;;;;;;11.40;5.53;;;25.30;99.90;;;;;;5031921;28;20384;-70
2021/07/27 06:49:55;;;;;;;13.38;6.05;;;25.10;99.90;;;;;;5032449;28;20048;-70
2021/07/27 06:53:01;;;;;;;12.13;5.70;;;24.70;99.90;;;;;;5022209;28;20518;-70
2021/07/27 06:56:09;;;;;;;12.85;6.53;;;25.10;99.90;;;;;;5028981;28;20511;-69
2021/07/27 06:59:13;;;;;;;12.93;6.47;;;25.30;99.70;;;;;;5016127;28;20053;-69
2021/07/27 07:02:17;;;;;;;14.18;6.15;;;25.10;99.20;;;;;;5012815;28;20384;-69
2021/07/27 07:05:21;;;;;;;16.15;6.22;;;25.40;99.50;;;;;;5021848;28;20071;-70
2021/07/27 07:08:26;;;;;;;13.02;5.93;;;25.80;99.00;;;;;;5023509;28;20056;-69
2021/07/27 07:11:30;;;;;;;9.45;6.00;;;25.40;98.80;;;;;;5031815;28;20045;-69
2021/07/27 07:14:34;;;;;;;8.68;5.63;;;25.60;98.70;;;;;;5015629;28;20037;-70
2021/07/27 07:17:40;;;;;;;9.98;5.88;;;26.00;98.10;;;;;;5011880;28;20057;-70
2021/07/27 07:20:44;;;;;;;13.93;6.30;;;26.10;97.50;;;;;;5011710;28;20045;-70
2021/07/27 07:23:48;;;;;;;16.10;5.93;;;25.70;98.50;;;;;;5035374;28;20451;-70
2021/07/27 07:26:52;;;;;;;16.70;5.55;;;25.90;98.20;;;;;;5024387;28;20045;-69
2021/07/27 07:29:57;;;;;;;11.32;5.57;;;26.50;98.10;;;;;;5017697;28;20052;-70
2021/07/27 07:33:01;;;;;;;9.18;5.00;;;28.00;96.20;;;;;;5020943;28;20048;-69
2021/07/27 07:36:12;;;;;;;9.02;4.50;;;28.60;94.10;;;;;;5031415;28;20033;-69
2021/07/27 07:39:16;;;;;;;;;;;28.70;92.90;;;;;;5029247;28;20314;-70
2021/07/27 07:42:20;;;;;;;13.23;4.43;;;28.30;92.40;;;;;;4973799;28;1290632;-69
2021/07/27 07:45:26;;;;;;;9.75;4.20;;;28.10;91.50;;;;;;5017616;28;20531;-69
2021/07/27 07:48:32;;;;;;;10.60;5.03;;;28.00;92.60;;;;;;5026060;28;20388;-69
2021/07/27 07:51:41;;;;;;;13.07;4.65;;;27.40;92.20;;;;;;5031626;28;20068;-69
2021/07/27 07:54:45;;;;;;;8.45;4.22;;;27.30;91.90;;;;;;5033291;28;20045;-69
2021/07/27 07:57:49;;;;;;;13.40;4.78;;;26.60;92.50;;;;;;5030806;28;20061;-68
2021/07/27 08:00:55;;;;;;;13.23;4.80;;;26.30;93.00;;;;;;5012909;28;20041;-69
2021/07/27 08:03:59;;;;;;;7.80;4.20;;;26.50;92.90;;;;;;5019239;28;20049;-70
2021/07/27 08:07:06;;;;;;;17.05;4.43;;;26.70;92.80;;;;;;5022674;28;20420;-70
2021/07/27 08:10:11;;;;;;;11.35;4.88;;;27.40;92.10;;;;;;5026274;28;20396;-69
2021/07/27 08:13:15;;;;;;;19.88;5.05;;;27.60;91.40;;;;;;5020028;28;20041;-69
2021/07/27 08:16:22;;;;;;;7.82;4.57;;;27.70;90.90;;;;;;5012123;28;20049;-70
2021/07/27 08:19:27;;;;;;;10.55;4.88;;;27.40;91.20;;;;;;5024632;28;20044;-68
2021/07/27 08:22:31;;;;;;;10.40;4.45;;;27.40;90.80;;;;;;5023795;28;20044;-69
2021/07/27 08:25:36;;;;;;;7.53;4.60;;;27.10;91.40;;;;;;5027506;28;20048;-68
2021/07/27 08:28:42;;;;;;;7.53;4.35;;;26.90;91.70;;;;;;5031299;28;20052;-70
2021/07/27 08:31:47;;;;;;;8.18;4.18;;;28.20;91.00;;;;;;5031148;28;20053;-69
2021/07/27 08:34:51;;;;;;;9.23;3.70;;;30.60;87.80;;;;;;5030842;28;20429;-69
2021/07/27 08:37:55;;;;;;;10.02;4.20;;;31.70;84.30;;;;;;5026243;28;20040;-69
2021/07/27 08:41:00;;;;;;;12.68;4.18;;;31.50;84.60;;;;;;5019816;28;20044;-69
2021/07/27 08:44:17;;;;;;;11.65;4.03;;;33.60;79.80;;;;;;5029848;28;20048;-70
2021/07/27 08:47:24;;;;;;;8.00;3.90;;;32.90;81.40;;;;;;5012292;28;20061;-70
2021/07/27 08:50:29;;;;;;;18.08;4.95;;;33.80;79.00;;;;;;5018572;28;20045;-68
2021/07/27 08:53:33;;;;;;;10.63;4.30;;;33.10;80.10;;;;;;5020110;28;20048;-70
2021/07/27 08:56:45;;;;;;;11.02;4.60;;;32.50;81.00;;;;;;5026573;28;20040;-69
2021/07/27 08:59:50;;;;;;;11.40;4.55;;;32.30;81.20;;;;;;5024801;28;20040;-69
2021/07/27 09:02:54;;;;;;;7.03;3.55;;;30.90;82.80;;;;;;5023081;28;20052;-68
2021/07/27 09:06:04;;;;;;;13.75;4.30;;;32.50;79.50;;;;;;5029755;28;20040;-70
2021/07/27 09:09:10;;;;;;;10.50;3.88;;;33.20;79.00;;;;;;5010921;28;20049;-68
2021/07/27 09:12:19;;;;;;;11.75;4.05;;;30.70;81.40;;;;;;5014220;28;20052;-69
2021/07/27 09:15:26;;;;;;;8.40;4.32;;;29.90;83.00;;;;;;5025654;28;20045;-69
2021/07/27 09:18:30;;;;;;;7.20;4.10;;;29.90;83.90;;;;;;5013391;28;20500;-68
2021/07/27 09:21:34;;;;;;;19.33;4.22;;;30.00;83.70;;;;;;5026988;28;20045;-70
2021/07/27 09:24:38;;;;;;;11.85;5.05;;;30.20;84.00;;;;;;5050431;28;20047;-70
2021/07/27 09:27:43;;;;;;;11.82;4.63;;;30.00;84.40;;;;;;5038182;28;20045;-70
2021/07/27 09:30:48;;;;;;;13.45;4.78;;;29.40;85.40;;;;;;5010752;28;20053;-70
2021/07/27 09:33:52;;;;;;;9.70;4.13;;;29.40;86.60;;;;;;5021088;28;20044;-67
2021/07/27 09:37:17;;;;;;;15.02;5.10;;;28.60;87.60;;;;;;5025776;28;20048;-69
2021/07/27 09:40:22;;;;;;;12.43;5.13;;;28.30;88.10;;;;;;5023985;28;20048;-69
2021/07/27 09:43:28;;;;;;;15.32;4.88;;;28.80;87.10;;;;;;5022989;28;20041;-69
2021/07/27 09:46:33;;;;;;;11.07;4.25;;;29.00;87.30;;;;;;5018687;28;20048;-69
2021/07/27 09:49:39;;;;;;;12.13;4.60;;;30.20;85.30;;;;;;5024818;28;20040;-67
2021/07/27 09:52:46;;;;;;;9.68;4.30;;;29.80;84.30;;;;;;5019933;28;20049;-68
2021/07/27 09:55:51;;;;;;;12.50;4.68;;;29.40;85.00;;;;;;5012700;28;20045;-68
2021/07/27 09:58:55;;;;;;;29.38;6.07;;;29.00;85.80;;;;;;5024643;28;20423;-69
2021/07/27 10:02:06;;;;;;;11.80;5.32;;;28.60;86.80;;;;;;5022388;28;20055;-70
2021/07/27 10:05:12;;;;;;;10.57;4.38;;;28.70;87.10;;;;;;5028462;28;20053;-68
2021/07/27 10:08:32;;;;;;;13.07;4.43;;;28.90;87.70;;;;;;5033747;28;20044;-69
2021/07/27 10:11:39;;;;;;;12.70;4.13;;;29.30;86.80;;;;;;5029148;28;20044;-69
2021/07/27 10:14:45;;;;;;;14.25;4.57;;;29.70;85.00;;;;;;5017585;28;20053;-69
2021/07/27 10:17:52;;;;;;;10.80;4.53;;;31.00;84.50;;;;;;5023305;28;20068;-68
2021/07/27 10:21:16;;;;;;;12.43;4.30;;;32.60;81.20;;;;;;5012629;28;20033;-68
2021/07/27 10:24:23;;;;;;;15.32;4.47;;;30.70;83.50;;;;;;5046167;28;20392;-69
2021/07/27 10:27:29;;;;;;;11.02;4.63;;;30.50;84.70;;;;;;5049202;28;20091;-69
2021/07/27 10:30:36;;;;;;;7.05;3.75;;;31.60;81.40;;;;;;5048639;28;20044;-69
2021/07/27 10:33:51;;;;;;;9.73;4.50;;;33.50;79.60;;;;;;5026006;28;20056;-68
2021/07/27 10:37:06;;;;;;;13.73;4.13;;;35.30;77.00;;;;;;5029452;28;20048;-70
2021/07/27 10:40:10;;;;;;;8.93;3.60;;;36.80;74.30;;;;;;5021003;28;20029;-70
2021/07/27 10:43:25;;;;;;;10.18;4.50;;;36.40;73.60;;;;;;5026788;28;20068;-69
2021/07/27 10:46:36;;;;;;;14.32;4.45;;;34.80;75.50;;;;;;5023668;28;20037;-69
2021/07/27 10:49:40;;;;;;;12.10;4.00;;;34.80;75.10;;;;;;5021844;28;20044;-67
2021/07/27 10:52:49;;;;;;;12.43;4.38;;;36.10;71.20;;;;;;5013935;28;20040;-70
2021/07/27 10:55:55;;;;;;;11.18;4.30;;;34.50;73.80;;;;;;5013356;28;20037;-68
2021/07/27 10:58:59;;;;;;;9.88;4.57;;;33.30;74.40;;;;;;5013164;28;20048;-69
2021/07/27 11:02:10;;;;;;;12.60;4.50;;;32.90;75.70;;;;;;5013374;28;20044;-68
2021/07/27 11:05:27;;;;;;;13.40;4.38;;;32.50;75.40;;;;;;5015759;28;20499;-69
2021/07/27 11:08:32;;;;;;;10.10;4.78;;;32.50;76.60;;;;;;5021268;28;20057;-70
2021/07/27 11:11:48;;;;;;;12.43;4.13;;;31.90;77.10;;;;;;5005237;28;20531;-69
2021/07/27 11:15:03;;;;;;;12.13;4.75;;;31.40;77.80;;;;;;5012198;28;20044;-68
2021/07/27 11:18:09;;;;;;;13.05;4.50;;;31.10;77.50;;;;;;5008551;28;20514;-69
2021/07/27 11:21:14;;;;;;;16.27;4.18;;;31.00;78.10;;;;;;5006757;28;20057;-68
2021/07/27 11:24:19;;;;;;;16.15;4.93;;;31.40;77.30;;;;;;5018716;28;20041;-68
2021/07/27 11:27:31;;;;;;;8.43;4.35;;;32.90;75.60;;;;;;5011438;28;20045;-68
2021/07/27 11:30:37;;;;;;;9.88;4.47;;;32.70;75.60;;;;;;5023953;28;20109;-68
2021/07/27 11:33:54;;;;;;;10.32;4.40;;;32.60;75.10;;;;;;5022300;28;20068;-69
2021/07/27 11:36:58;;;;;;;11.40;4.45;;;32.40;76.10;;;;;;5017895;28;20037;-68
2021/07/27 11:40:03;;;;;;;15.18;4.18;;;31.90;75.70;;;;;;5030189;28;20056;-68
2021/07/27 11:43:10;;;;;;;17.60;5.20;;;31.60;77.10;;;;;;5017205;28;20328;-68
2021/07/27 11:46:16;;;;;;;12.82;4.82;;;31.30;77.00;;;;;;5018523;28;20040;-69
2021/07/27 11:49:21;;;;;;;16.55;4.97;;;31.20;78.40;;;;;;5016417;28;20044;-68
2021/07/27 11:52:29;;;;;;;9.50;3.92;;;31.10;78.00;;;;;;5021157;28;20608;-69
2021/07/27 11:55:38;;;;;;;13.27;5.10;;;31.20;79.20;;;;;;5021538;28;20045;-69
2021/07/27 11:58:47;;;;;;;13.55;4.95;;;31.60;78.60;;;;;;5021607;28;20610;-69
2021/07/27 12:01:54;;;;;;;13.95;4.30;;;32.00;78.70;;;;;;5014865;28;20048;-69
2021/07/27 12:05:00;;;;;;;13.98;5.85;;;32.30;77.70;;;;;;5015137;28;20503;-68
2021/07/27 12:08:05;;;;;;;17.20;4.68;;;32.90;76.70;;;;;;5017669;28;20424;-68
2021/07/27 12:11:10;;;;;;;10.45;5.20;;;33.00;77.20;;;;;;5022479;28;20053;-68
2021/07/27 12:14:15;;;;;;;9.82;4.85;;;33.20;75.10;;;;;;5023856;28;20041;-69
2021/07/27 12:17:20;;;;;;;13.55;4.53;;;33.30;74.80;;;;;;5025652;28;20551;-70
2021/07/27 12:20:25;;;;;;;10.27;4.85;;;34.40;73.80;;;;;;5023582;28;20037;-69
2021/07/27 12:23:30;;;;;;;13.38;5.10;;;34.60;75.40;;;;;;5017375;28;20049;-68
2021/07/27 12:26:38;;;;;;;10.30;4.40;;;35.70;70.90;;;;;;5022241;28;20114;-68
2021/07/27 12:29:42;;;;;;;12.13;4.95;;;36.10;70.40;;;;;;5022616;28;20268;-69
2021/07/27 12:32:46;;;;;;;11.85;4.78;;;36.20;70.80;;;;;;5029269;28;20509;-69
2021/07/27 12:35:51;;;;;;;13.85;4.95;;;36.30;69.80;;;;;;5030880;28;20040;-68
2021/07/27 12:38:55;;;;;;;12.02;4.53;;;35.50;70.10;;;;;;5022171;28;20052;-69
2021/07/27 12:41:59;;;;;;;15.27;4.30;;;35.70;70.00;;;;;;5021758;28;20049;-68
2021/07/27 12:45:06;;;;;;;13.00;4.60;;;35.80;70.60;;;;;;5029974;28;20048;-68
2021/07/27 12:48:11;;;;;;;12.02;4.32;;;34.30;68.30;;;;;;5027514;28;20048;-68
2021/07/27 12:51:19;;;;;;;11.38;4.13;;;33.60;67.40;;;;;;5024511;28;20048;-66
2021/07/27 12:54:25;;;;;;;10.77;4.53;;;33.60;67.50;;;;;;5030156;28;20067;-68
2021/07/27 12:57:29;;;;;;;13.07;4.30;;;33.70;68.40;;;;;;5030285;28;20037;-67
2021/07/27 13:00:34;;;;;;;13.93;4.75;;;33.80;66.40;;;;;;5029037;28;20060;-69
2021/07/27 13:03:39;;;;;;;12.55;4.25;;;34.30;66.60;;;;;;5025937;28;20040;-68
2021/07/27 13:06:43;;;;;;;16.67;4.53;;;34.00;66.50;;;;;;5026107;28;20049;-69
2021/07/27 13:09:48;;;;;;;13.65;4.18;;;34.10;65.60;;;;;;5028856;28;20072;-68
2021/07/27 13:12:53;;;;;;;13.98;5.00;;;34.50;66.80;;;;;;5029366;28;20056;-67
2021/07/27 13:15:58;;;;;;;16.92;4.43;;;34.00;66.10;;;;;;5023026;28;20057;-67
2021/07/27 13:19:03;;;;;;;14.60;4.70;;;33.90;66.60;;;;;;5028435;28;20056;-68
2021/07/27 13:22:07;;;;;;;10.95;4.32;;;34.40;64.80;;;;;;5014767;28;20037;-67
2021/07/27 13:25:12;;;;;;;13.35;4.18;;;33.40;64.60;;;;;;5030007;28;20056;-68
2021/07/27 13:28:17;;;;;;;14.82;4.78;;;33.50;65.10;;;;;;5018028;28;20060;-67
2021/07/27 13:31:24;;;;;;;15.35;4.57;;;32.80;65.70;;;;;;5019628;28;20396;-68
2021/07/27 13:34:29;;;;;;;12.02;3.90;;;33.00;66.70;;;;;;5028814;28;20651;-68
2021/07/27 13:37:33;;;;;;;14.40;4.00;;;33.70;65.60;;;;;;5030678;28;20052;-68
2021/07/27 13:40:38;;;;;;;14.35;4.40;;;33.20;65.70;;;;;;5013878;28;20032;-68
2021/07/27 13:43:43;;;;;;;10.52;4.55;;;33.50;66.10;;;;;;5001060;28;20056;-69
2021/07/27 13:46:48;;;;;;;10.80;4.30;;;33.70;65.50;;;;;;5021116;28;20109;-69
2021/07/27 13:49:52;;;;;;;8.07;3.47;;;34.00;66.30;;;;;;5014101;28;20045;-68
2021/07/27 13:52:56;;;;;;;10.07;3.70;;;34.10;65.50;;;;;;5017754;28;20044;-68
2021/07/27 13:56:02;;;;;;;17.65;4.88;;;33.80;66.20;;;;;;5012767;28;20049;-68
2021/07/27 13:59:06;;;;;;;9.23;4.20;;;33.50;66.50;;;;;;5028520;28;20052;-69
2021/07/27 14:02:11;;;;;;;10.88;4.72;;;33.60;66.30;;;;;;5029183;28;20048;-69
2021/07/27 14:05:21;;;;;;;12.23;4.68;;;33.30;66.50;;;;;;5017918;28;20068;-68
2021/07/27 14:08:28;;;;;;;13.65;3.95;;;34.20;65.90;;;;;;5025933;28;20507;-69
2021/07/27 14:11:34;;;;;;;11.85;4.13;;;34.40;66.30;;;;;;5028243;28;20386;-66
2021/07/27 14:14:40;;;;;;;14.60;4.25;;;34.40;65.00;;;;;;5039500;28;20052;-68
2021/07/27 14:17:48;;;;;;;11.45;3.97;;;34.10;64.50;;;;;;5037391;28;20045;-66
2021/07/27 14:20:52;;;;;;;13.55;4.13;;;34.20;65.90;;;;;;5010477;28;20053;-67
2021/07/27 14:23:59;;;;;;;11.52;4.22;;;33.40;66.60;;;;;;5010386;28;20041;-68
2021/07/27 14:27:03;;;;;;;15.73;4.45;;;33.20;67.10;;;;;;5010264;28;20052;-67
2021/07/27 14:30:07;;;;;;;16.85;3.95;;;33.30;66.40;;;;;;5009661;28;20073;-66
2021/07/27 14:33:12;;;;;;;25.88;5.50;;;33.30;65.90;;;;;;5011140;28;20507;-67
2021/07/27 14:36:16;;;;;;;13.63;3.67;;;32.70;66.80;;;;;;5029950;28;20475;-64
2021/07/27 14:39:21;;;;;;;13.98;4.10;;;32.90;66.50;;;;;;5030036;28;20036;-66
2021/07/27 14:42:28;;;;;;;11.15;3.53;;;33.30;66.20;;;;;;5028402;28;20049;-68
2021/07/27 14:45:32;;;;;;;16.77;3.80;;;33.50;66.80;;;;;;5013733;28;20057;-67
2021/07/27 14:48:39;;;;;;;14.50;4.22;;;33.00;68.40;;;;;;5010357;28;20065;-68
2021/07/27 14:51:45;;;;;;;13.02;3.70;;;32.70;67.50;;;;;;5009868;28;20052;-66
2021/07/27 14:54:49;;;;;;;18.63;4.65;;;32.90;67.30;;;;;;5016253;28;20048;-68
2021/07/27 14:57:55;;;;;;;13.48;4.00;;;33.30;65.50;;;;;;5028688;28;20518;-68
2021/07/27 15:00:59;;;;;;;12.10;4.13;;;33.90;65.40;;;;;;5023852;28;20499;-69
2021/07/27 15:04:03;;;;;;;16.40;4.22;;;33.30;65.30;;;;;;5028248;28;20037;-68
2021/07/27 15:07:07;;;;;;;12.30;5.25;;;33.20;66.70;;;;;;5040026;28;20048;-69
2021/07/27 15:10:14;;;;;;;10.55;3.40;;;33.30;66.70;;;;;;5029895;28;20068;-68
2021/07/27 15:13:20;;;;;;;11.85;4.00;;;33.10;66.90;;;;;;5033482;28;20061;-69
2021/07/27 15:16:24;;;;;;;13.73;4.18;;;32.30;67.00;;;;;;5033752;28;20510;-69
2021/07/27 15:19:30;;;;;;;14.10;4.88;;;32.20;67.80;;;;;;5042428;28;20048;-68
2021/07/27 15:22:35;;;;;;;14.95;4.55;;;32.50;66.30;;;;;;5052761;28;20060;-69
2021/07/27 15:25:39;;;;;;;11.75;4.13;;;33.00;67.30;;;;;;5053174;28;20044;-68
2021/07/27 15:28:44;;;;;;;14.88;4.78;;;33.40;67.60;;;;;;5038271;28;20044;-69
2021/07/27 15:31:49;;;;;;;9.88;3.80;;;33.10;68.10;;;;;;5031857;28;20641;-69
2021/07/27 15:34:55;;;;;;;11.30;4.30;;;32.90;68.00;;;;;;5033158;28;20056;-68
2021/07/27 15:38:00;;;;;;;10.88;4.00;;;32.70;67.90;;;;;;5012932;28;20499;-69
2021/07/27 15:41:06;;;;;;;9.77;4.20;;;32.40;67.90;;;;;;5012439;28;20045;-69
2021/07/27 15:44:12;;;;;;;13.20;4.13;;;32.50;69.00;;;;;;5013036;28;20166;-68
2021/07/27 15:47:17;;;;;;;12.60;4.28;;;32.70;67.80;;;;;;5013771;28;20054;-69
2021/07/27 15:50:21;;;;;;;6.68;3.97;;;32.40;69.20;;;;;;5013204;28;21102;-69
2021/07/27 15:53:26;;;;;;;11.60;4.32;;;32.20;70.90;;;;;;5013486;28;20385;-69
2021/07/27 15:56:33;;;;;;;9.85;4.72;;;32.40;70.70;;;;;;5012139;28;20049;-68
2021/07/27 15:59:40;;;;;;;10.57;4.53;;;32.10;71.20;;;;;;5027979;28;20048;-69
2021/07/27 16:02:45;;;;;;;13.85;4.60;;;32.20;71.30;;;;;;5032553;28;20519;-69
2021/07/27 16:05:49;;;;;;;9.90;4.25;;;32.40;69.80;;;;;;5032137;28;20044;-69
2021/07/27 16:08:53;;;;;;;17.60;4.45;;;32.60;71.80;;;;;;5032418;28;20498;-68
2021/07/27 16:11:58;;;;;;;11.05;4.13;;;32.80;71.10;;;;;;5037582;28;20040;-68
2021/07/27 16:15:02;;;;;;;9.00;4.18;;;32.80;72.30;;;;;;5023081;28;20040;-68